sensor_id;sensor_type;location;lat;lon;timestamp;temperature;humidity
1978;DHT22;989;53.016;8.346;2023-02-01T00:02:00;7.00;1.00
1978;DHT22;989;53.016;8.346;2023-02-01T00:04:26;7.10;1.00
1978;DHT22;989;53.016;8.346;2023-02-01T00:06:52;7.00;1.00
1978;DHT22;989;53.016;8.346;2023-02-01T00:09:18;6.90;1.00
1978;DHT22;989;53.016;8.346;2023-02-01T00:11:43;6.90;1.00
1978;DHT22;989;53.016;8.346;2023-02-01T00:14:09;6.90;1.00
1978;DHT22;989;53.016;8.346;2023-02-01T00:16:35;6.90;1.00
1978;DHT22;989;53.016;8.346;2023-02-01T00:19:04;6.90;1.00
1978;DHT22;989;53.016;8.346;2023-02-01T00:21:31;6.90;1.00
1978;DHT22;989;53.016;8.346;2023-02-01T00:23:58;7.00;1.00
1978;DHT22;989;53.016;8.346;2023-02-01T00:26:34;7.00;1.00
1978;DHT22;989;53.016;8.346;2023-02-01T00:29:05;6.90;1.00
1978;DHT22;989;53.016;8.346;2023-02-01T00:31:32;6.90;1.00
1978;DHT22;989;53.016;8.346;2023-02-01T00:33:58;6.90;1.00
1978;DHT22;989;53.016;8.346;2023-02-01T00:36:24;7.00;1.00
1978;DHT22;989;53.016;8.346;2023-02-01T00:38:49;7.00;1.00
1978;DHT22;989;53.016;8.346;2023-02-01T00:41:17;6.90;1.00
1978;DHT22;989;53.016;8.346;2023-02-01T00:43:45;7.00;1.00
1978;DHT22;989;53.016;8.346;2023-02-01T00:46:12;7.00;1.00
1978;DHT22;989;53.016;8.346;2023-02-01T00:48:38;6.90;1.00
1978;DHT22;989;53.016;8.346;2023-02-01T00:51:07;7.00;1.00
1978;DHT22;989;53.016;8.346;2023-02-01T00:53:34;6.90;1.00
1978;DHT22;989;53.016;8.346;2023-02-01T00:56:00;6.90;1.00
1978;DHT22;989;53.016;8.346;2023-02-01T00:58:26;6.90;1.00
1978;DHT22;989;53.016;8.346;2023-02-01T01:01:05;7.00;1.00
1978;DHT22;989;53.016;8.346;2023-02-01T01:03:43;7.00;1.00
1978;DHT22;989;53.016;8.346;2023-02-01T01:06:16;7.00;1.00
1978;DHT22;989;53.016;8.346;2023-02-01T01:08:43;7.00;1.00
1978;DHT22;989;53.016;8.346;2023-02-01T01:11:15;7.00;1.00
1978;DHT22;989;53.016;8.346;2023-02-01T01:13:43;7.00;1.00
1978;DHT22;989;53.016;8.346;2023-02-01T01:16:11;7.00;1.00
1978;DHT22;989;53.016;8.346;2023-02-01T01:18:38;7.00;1.00
1978;DHT22;989;53.016;8.346;2023-02-01T01:21:05;7.00;1.00
1978;DHT22;989;53.016;8.346;2023-02-01T01:23:31;7.00;1.00
1978;DHT22;989;53.016;8.346;2023-02-01T01:25:57;6.90;1.00
1978;DHT22;989;53.016;8.346;2023-02-01T01:28:23;7.00;1.00
1978;DHT22;989;53.016;8.346;2023-02-01T01:30:48;6.90;1.00
1978;DHT22;989;53.016;8.346;2023-02-01T01:33:14;6.90;1.00
1978;DHT22;989;53.016;8.346;2023-02-01T01:35:40;6.90;1.00
1978;DHT22;989;53.016;8.346;2023-02-01T01:38:06;6.90;1.00
1978;DHT22;989;53.016;8.346;2023-02-01T01:40:33;6.90;1.00
1978;DHT22;989;53.016;8.346;2023-02-01T01:42:58;6.90;1.00
1978;DHT22;989;53.016;8.346;2023-02-01T01:47:57;6.90;1.00
1978;DHT22;989;53.016;8.346;2023-02-01T01:50:30;6.90;1.00
1978;DHT22;989;53.016;8.346;2023-02-01T01:53:01;6.80;1.00
1978;DHT22;989;53.016;8.346;2023-02-01T01:55:32;6.80;1.00
1978;DHT22;989;53.016;8.346;2023-02-01T01:58:03;6.80;1.00
1978;DHT22;989;53.016;8.346;2023-02-01T02:00:31;6.90;1.00
1978;DHT22;989;53.016;8.346;2023-02-01T02:03:11;6.90;1.00
1978;DHT22;989;53.016;8.346;2023-02-01T02:05:41;6.90;1.00
1978;DHT22;989;53.016;8.346;2023-02-01T02:08:07;6.90;1.00
1978;DHT22;989;53.016;8.346;2023-02-01T02:10:33;7.00;1.00
1978;DHT22;989;53.016;8.346;2023-02-01T02:13:18;7.00;1.00
1978;DHT22;989;53.016;8.346;2023-02-01T02:19:35;6.90;1.00
1978;DHT22;989;53.016;8.346;2023-02-01T02:31:37;7.00;1.00
1978;DHT22;989;53.016;8.346;2023-02-01T02:34:14;7.00;1.00
1978;DHT22;989;53.016;8.346;2023-02-01T02:39:38;7.00;1.00
1978;DHT22;989;53.016;8.346;2023-02-01T02:45:27;6.80;1.00
1978;DHT22;989;53.016;8.346;2023-02-01T02:48:27;6.80;1.00
1978;DHT22;989;53.016;8.346;2023-02-01T02:50:59;6.80;1.00
1978;DHT22;989;53.016;8.346;2023-02-01T02:56:59;6.60;1.00
1978;DHT22;989;53.016;8.346;2023-02-01T02:59:47;6.60;1.00
1978;DHT22;989;53.016;8.346;2023-02-01T03:02:32;6.70;1.00
1978;DHT22;989;53.016;8.346;2023-02-01T03:05:18;6.70;1.00
1978;DHT22;989;53.016;8.346;2023-02-01T03:10:26;6.70;1.00
1978;DHT22;989;53.016;8.346;2023-02-01T03:16:38;6.60;1.00
1978;DHT22;989;53.016;8.346;2023-02-01T03:19:12;6.50;1.00
1978;DHT22;989;53.016;8.346;2023-02-01T03:22:02;6.40;1.00
1978;DHT22;989;53.016;8.346;2023-02-01T03:24:36;6.30;1.00
1978;DHT22;989;53.016;8.346;2023-02-01T03:30:24;6.20;1.00
1978;DHT22;989;53.016;8.346;2023-02-01T03:32:58;6.10;1.00
1978;DHT22;989;53.016;8.346;2023-02-01T03:41:49;6.00;34.70
1978;DHT22;989;53.016;8.346;2023-02-01T03:44:32;6.00;45.50
1978;DHT22;989;53.016;8.346;2023-02-01T03:47:13;5.90;59.80
1978;DHT22;989;53.016;8.346;2023-02-01T03:49:57;5.90;61.40
1978;DHT22;989;53.016;8.346;2023-02-01T03:52:36;5.90;70.90
1978;DHT22;989;53.016;8.346;2023-02-01T03:55:06;5.90;86.00
1978;DHT22;989;53.016;8.346;2023-02-01T03:57:35;5.90;91.80
1978;DHT22;989;53.016;8.346;2023-02-01T04:00:09;5.90;93.90
1978;DHT22;989;53.016;8.346;2023-02-01T04:02:40;5.90;93.40
1978;DHT22;989;53.016;8.346;2023-02-01T04:05:06;5.90;90.70
1978;DHT22;989;53.016;8.346;2023-02-01T04:07:32;5.90;89.00
1978;DHT22;989;53.016;8.346;2023-02-01T04:09:58;5.90;90.20
1978;DHT22;989;53.016;8.346;2023-02-01T04:12:23;5.90;88.70
1978;DHT22;989;53.016;8.346;2023-02-01T04:14:49;5.90;88.40
1978;DHT22;989;53.016;8.346;2023-02-01T04:17:14;5.90;90.20
1978;DHT22;989;53.016;8.346;2023-02-01T04:19:40;5.90;90.10
1978;DHT22;989;53.016;8.346;2023-02-01T04:22:06;6.00;84.10
1978;DHT22;989;53.016;8.346;2023-02-01T04:24:31;5.90;88.20
1978;DHT22;989;53.016;8.346;2023-02-01T04:26:57;6.00;80.70
1978;DHT22;989;53.016;8.346;2023-02-01T04:29:22;6.00;73.40
1978;DHT22;989;53.016;8.346;2023-02-01T04:31:48;6.00;72.30
1978;DHT22;989;53.016;8.346;2023-02-01T04:34:14;6.00;73.70
1978;DHT22;989;53.016;8.346;2023-02-01T04:36:40;6.10;69.80
1978;DHT22;989;53.016;8.346;2023-02-01T04:39:06;6.10;67.90
1978;DHT22;989;53.016;8.346;2023-02-01T04:41:31;6.20;61.80
1978;DHT22;989;53.016;8.346;2023-02-01T04:43:57;6.20;56.40
1978;DHT22;989;53.016;8.346;2023-02-01T04:46:23;6.20;46.90
1978;DHT22;989;53.016;8.346;2023-02-01T04:48:48;6.30;44.80
1978;DHT22;989;53.016;8.346;2023-02-01T04:51:14;6.20;50.10
1978;DHT22;989;53.016;8.346;2023-02-01T04:53:40;6.20;58.70
1978;DHT22;989;53.016;8.346;2023-02-01T04:56:06;6.10;72.70
1978;DHT22;989;53.016;8.346;2023-02-01T04:58:33;6.10;80.20
1978;DHT22;989;53.016;8.346;2023-02-01T05:00:58;6.10;81.40
1978;DHT22;989;53.016;8.346;2023-02-01T05:03:24;6.10;84.80
1978;DHT22;989;53.016;8.346;2023-02-01T05:05:50;6.10;92.20
1978;DHT22;989;53.016;8.346;2023-02-01T05:08:17;6.00;97.80
1978;DHT22;989;53.016;8.346;2023-02-01T05:10:44;6.00;99.90
1978;DHT22;989;53.016;8.346;2023-02-01T05:13:10;6.00;99.90
1978;DHT22;989;53.016;8.346;2023-02-01T05:15:54;6.00;99.90
1978;DHT22;989;53.016;8.346;2023-02-01T05:18:20;6.00;99.90
1978;DHT22;989;53.016;8.346;2023-02-01T05:20:45;5.90;99.90
1978;DHT22;989;53.016;8.346;2023-02-01T05:23:11;5.90;99.90
1978;DHT22;989;53.016;8.346;2023-02-01T05:25:36;5.80;99.90
1978;DHT22;989;53.016;8.346;2023-02-01T05:28:02;5.70;99.90
1978;DHT22;989;53.016;8.346;2023-02-01T05:30:28;5.70;99.90
1978;DHT22;989;53.016;8.346;2023-02-01T05:32:53;5.70;99.90
1978;DHT22;989;53.016;8.346;2023-02-01T05:35:19;5.80;99.90
1978;DHT22;989;53.016;8.346;2023-02-01T05:37:45;5.80;99.90
1978;DHT22;989;53.016;8.346;2023-02-01T05:40:11;5.90;99.90
1978;DHT22;989;53.016;8.346;2023-02-01T05:42:37;6.00;99.90
1978;DHT22;989;53.016;8.346;2023-02-01T05:45:03;6.00;99.90
1978;DHT22;989;53.016;8.346;2023-02-01T05:47:30;6.00;99.90
1978;DHT22;989;53.016;8.346;2023-02-01T05:49:56;6.10;99.90
1978;DHT22;989;53.016;8.346;2023-02-01T05:52:22;6.10;99.90
1978;DHT22;989;53.016;8.346;2023-02-01T05:54:48;6.10;99.90
1978;DHT22;989;53.016;8.346;2023-02-01T05:57:14;6.10;99.90
1978;DHT22;989;53.016;8.346;2023-02-01T05:59:39;6.10;99.90
1978;DHT22;989;53.016;8.346;2023-02-01T06:02:11;6.10;99.90
1978;DHT22;989;53.016;8.346;2023-02-01T06:04:37;6.10;99.90
1978;DHT22;989;53.016;8.346;2023-02-01T06:07:04;6.10;99.90
1978;DHT22;989;53.016;8.346;2023-02-01T06:09:31;6.20;99.90
1978;DHT22;989;53.016;8.346;2023-02-01T06:11:56;6.20;99.90
1978;DHT22;989;53.016;8.346;2023-02-01T06:14:23;6.20;99.90
1978;DHT22;989;53.016;8.346;2023-02-01T06:16:49;6.20;99.90
1978;DHT22;989;53.016;8.346;2023-02-01T06:19:15;6.20;99.90
1978;DHT22;989;53.016;8.346;2023-02-01T06:21:41;6.20;99.90
1978;DHT22;989;53.016;8.346;2023-02-01T06:24:06;6.10;99.90
1978;DHT22;989;53.016;8.346;2023-02-01T06:26:32;6.10;99.90
1978;DHT22;989;53.016;8.346;2023-02-01T06:28:58;6.20;99.90
1978;DHT22;989;53.016;8.346;2023-02-01T06:31:24;6.10;99.90
1978;DHT22;989;53.016;8.346;2023-02-01T06:33:51;6.10;99.90
1978;DHT22;989;53.016;8.346;2023-02-01T06:36:17;6.00;99.90
1978;DHT22;989;53.016;8.346;2023-02-01T06:38:44;5.80;99.90
1978;DHT22;989;53.016;8.346;2023-02-01T06:41:10;5.90;99.90
1978;DHT22;989;53.016;8.346;2023-02-01T06:43:36;6.00;99.90
1978;DHT22;989;53.016;8.346;2023-02-01T06:46:05;6.10;99.90
1978;DHT22;989;53.016;8.346;2023-02-01T06:48:33;6.30;99.90
1978;DHT22;989;53.016;8.346;2023-02-01T06:50:59;6.30;99.90
1978;DHT22;989;53.016;8.346;2023-02-01T06:53:25;6.40;99.30
1978;DHT22;989;53.016;8.346;2023-02-01T06:55:58;6.40;93.40
1978;DHT22;989;53.016;8.346;2023-02-01T06:58:29;6.50;85.20
1978;DHT22;989;53.016;8.346;2023-02-01T07:00:56;6.50;74.30
1978;DHT22;989;53.016;8.346;2023-02-01T07:03:21;6.50;67.60
1978;DHT22;989;53.016;8.346;2023-02-01T07:05:47;6.60;49.00
1978;DHT22;989;53.016;8.346;2023-02-01T07:08:13;6.60;46.40
1978;DHT22;989;53.016;8.346;2023-02-01T07:10:38;6.60;41.90
1978;DHT22;989;53.016;8.346;2023-02-01T07:13:04;6.60;32.20
1978;DHT22;989;53.016;8.346;2023-02-01T07:15:30;6.60;34.00
1978;DHT22;989;53.016;8.346;2023-02-01T07:17:55;6.60;36.90
1978;DHT22;989;53.016;8.346;2023-02-01T07:20:21;6.70;37.30
1978;DHT22;989;53.016;8.346;2023-02-01T07:22:47;6.60;43.70
1978;DHT22;989;53.016;8.346;2023-02-01T07:25:13;6.50;54.40
1978;DHT22;989;53.016;8.346;2023-02-01T07:27:39;6.40;63.50
1978;DHT22;989;53.016;8.346;2023-02-01T07:30:05;6.40;67.50
1978;DHT22;989;53.016;8.346;2023-02-01T07:32:32;6.40;71.30
1978;DHT22;989;53.016;8.346;2023-02-01T07:34:58;6.40;68.50
1978;DHT22;989;53.016;8.346;2023-02-01T07:37:24;6.40;69.60
1978;DHT22;989;53.016;8.346;2023-02-01T07:39:50;6.40;69.20
1978;DHT22;989;53.016;8.346;2023-02-01T07:42:16;6.40;70.70
1978;DHT22;989;53.016;8.346;2023-02-01T07:44:43;6.40;71.40
1978;DHT22;989;53.016;8.346;2023-02-01T07:47:08;6.40;76.30
1978;DHT22;989;53.016;8.346;2023-02-01T07:49:34;6.40;76.70
1978;DHT22;989;53.016;8.346;2023-02-01T07:52:00;6.50;80.20
1978;DHT22;989;53.016;8.346;2023-02-01T07:54:25;6.40;81.00
1978;DHT22;989;53.016;8.346;2023-02-01T07:56:51;6.50;73.40
1978;DHT22;989;53.016;8.346;2023-02-01T07:59:17;6.50;71.70
1978;DHT22;989;53.016;8.346;2023-02-01T08:01:42;6.60;59.80
1978;DHT22;989;53.016;8.346;2023-02-01T08:04:11;6.50;61.70
1978;DHT22;989;53.016;8.346;2023-02-01T08:06:37;6.50;59.50
1978;DHT22;989;53.016;8.346;2023-02-01T08:09:04;6.60;57.00
1978;DHT22;989;53.016;8.346;2023-02-01T08:11:31;6.60;52.10
1978;DHT22;989;53.016;8.346;2023-02-01T08:13:57;6.60;38.00
1978;DHT22;989;53.016;8.346;2023-02-01T08:16:25;6.70;34.00
1978;DHT22;989;53.016;8.346;2023-02-01T08:18:51;6.70;34.30
1978;DHT22;989;53.016;8.346;2023-02-01T08:21:27;6.70;33.60
1978;DHT22;989;53.016;8.346;2023-02-01T08:24:03;6.80;27.70
1978;DHT22;989;53.016;8.346;2023-02-01T08:26:30;6.80;30.80
1978;DHT22;989;53.016;8.346;2023-02-01T08:28:58;6.80;31.30
1978;DHT22;989;53.016;8.346;2023-02-01T08:31:27;6.80;28.70
1978;DHT22;989;53.016;8.346;2023-02-01T08:33:58;6.70;34.70
1978;DHT22;989;53.016;8.346;2023-02-01T08:36:28;6.60;38.80
1978;DHT22;989;53.016;8.346;2023-02-01T08:38:54;6.70;42.40
1978;DHT22;989;53.016;8.346;2023-02-01T08:41:22;6.70;40.10
1978;DHT22;989;53.016;8.346;2023-02-01T08:43:50;6.70;39.20
1978;DHT22;989;53.016;8.346;2023-02-01T08:46:16;6.70;41.30
1978;DHT22;989;53.016;8.346;2023-02-01T08:48:42;6.80;37.50
1978;DHT22;989;53.016;8.346;2023-02-01T08:51:11;6.90;30.00
1978;DHT22;989;53.016;8.346;2023-02-01T08:53:38;6.90;22.80
1978;DHT22;989;53.016;8.346;2023-02-01T08:56:11;7.00;17.40
1978;DHT22;989;53.016;8.346;2023-02-01T08:58:38;7.00;16.90
1978;DHT22;989;53.016;8.346;2023-02-01T09:01:10;7.10;13.90
1978;DHT22;989;53.016;8.346;2023-02-01T09:03:39;7.20;7.50
1978;DHT22;989;53.016;8.346;2023-02-01T09:06:07;7.20;1.00
1978;DHT22;989;53.016;8.346;2023-02-01T09:08:35;7.20;1.00
1978;DHT22;989;53.016;8.346;2023-02-01T09:11:05;7.30;1.00
1978;DHT22;989;53.016;8.346;2023-02-01T09:13:32;7.30;1.00
1978;DHT22;989;53.016;8.346;2023-02-01T09:15:59;7.30;1.00
1978;DHT22;989;53.016;8.346;2023-02-01T09:18:25;7.30;1.00
1978;DHT22;989;53.016;8.346;2023-02-01T09:20:51;7.40;1.00
1978;DHT22;989;53.016;8.346;2023-02-01T09:23:17;7.40;1.00
1978;DHT22;989;53.016;8.346;2023-02-01T09:25:43;7.50;1.00
1978;DHT22;989;53.016;8.346;2023-02-01T09:28:09;7.50;1.00
1978;DHT22;989;53.016;8.346;2023-02-01T09:30:36;7.60;1.00
1978;DHT22;989;53.016;8.346;2023-02-01T09:33:02;7.60;1.00
1978;DHT22;989;53.016;8.346;2023-02-01T09:35:28;7.60;1.00
1978;DHT22;989;53.016;8.346;2023-02-01T09:37:54;7.50;1.00
1978;DHT22;989;53.016;8.346;2023-02-01T09:40:20;7.50;1.00
1978;DHT22;989;53.016;8.346;2023-02-01T09:48:55;7.60;1.00
1978;DHT22;989;53.016;8.346;2023-02-01T09:51:48;7.60;1.00
1978;DHT22;989;53.016;8.346;2023-02-01T09:54:22;7.60;1.00
1978;DHT22;989;53.016;8.346;2023-02-01T09:57:06;7.60;1.00
1978;DHT22;989;53.016;8.346;2023-02-01T09:59:43;7.60;1.00
1978;DHT22;989;53.016;8.346;2023-02-01T10:02:20;7.60;1.00
1978;DHT22;989;53.016;8.346;2023-02-01T10:04:47;7.60;1.00
1978;DHT22;989;53.016;8.346;2023-02-01T10:13:05;7.50;1.00
1978;DHT22;989;53.016;8.346;2023-02-01T10:16:15;7.40;1.00
1978;DHT22;989;53.016;8.346;2023-02-01T10:18:57;7.30;1.00
1978;DHT22;989;53.016;8.346;2023-02-01T10:21:43;7.30;1.00
1978;DHT22;989;53.016;8.346;2023-02-01T10:24:41;7.20;1.00
1978;DHT22;989;53.016;8.346;2023-02-01T10:27:20;7.20;4.20
1978;DHT22;989;53.016;8.346;2023-02-01T10:29:54;7.10;8.90
1978;DHT22;989;53.016;8.346;2023-02-01T10:32:28;7.00;8.00
1978;DHT22;989;53.016;8.346;2023-02-01T10:35:02;7.00;9.00
1978;DHT22;989;53.016;8.346;2023-02-01T10:37:41;7.10;3.80
1978;DHT22;989;53.016;8.346;2023-02-01T10:40:26;7.20;4.10
1978;DHT22;989;53.016;8.346;2023-02-01T10:42:59;7.20;8.30
1978;DHT22;989;53.016;8.346;2023-02-01T10:45:29;7.10;8.90
1978;DHT22;989;53.016;8.346;2023-02-01T10:47:58;7.10;9.30
1978;DHT22;989;53.016;8.346;2023-02-01T10:50:37;7.10;14.00
1978;DHT22;989;53.016;8.346;2023-02-01T10:53:24;7.10;17.20
1978;DHT22;989;53.016;8.346;2023-02-01T10:55:55;7.10;20.70
1978;DHT22;989;53.016;8.346;2023-02-01T10:58:31;7.00;23.60
1978;DHT22;989;53.016;8.346;2023-02-01T11:01:06;7.00;24.30
1978;DHT22;989;53.016;8.346;2023-02-01T11:06:18;7.00;28.90
1978;DHT22;989;53.016;8.346;2023-02-01T11:08:49;6.90;34.80
1978;DHT22;989;53.016;8.346;2023-02-01T11:11:17;6.80;40.30
1978;DHT22;989;53.016;8.346;2023-02-01T11:13:43;6.80;46.10
1978;DHT22;989;53.016;8.346;2023-02-01T11:16:13;6.70;46.10
1978;DHT22;989;53.016;8.346;2023-02-01T11:18:42;6.70;61.80
1978;DHT22;989;53.016;8.346;2023-02-01T11:21:09;6.60;70.00
1978;DHT22;989;53.016;8.346;2023-02-01T11:23:44;6.60;69.10
1978;DHT22;989;53.016;8.346;2023-02-01T11:26:20;6.50;75.70
1978;DHT22;989;53.016;8.346;2023-02-01T11:28:59;6.40;68.40
1978;DHT22;989;53.016;8.346;2023-02-01T11:31:28;6.30;72.70
1978;DHT22;989;53.016;8.346;2023-02-01T11:34:16;6.30;78.60
1978;DHT22;989;53.016;8.346;2023-02-01T11:36:46;6.40;82.30
1978;DHT22;989;53.016;8.346;2023-02-01T11:44:36;6.50;90.50
1978;DHT22;989;53.016;8.346;2023-02-01T11:47:22;6.60;93.00
1978;DHT22;989;53.016;8.346;2023-02-01T11:49:59;6.50;94.80
1978;DHT22;989;53.016;8.346;2023-02-01T11:55:55;6.50;99.90
1978;DHT22;989;53.016;8.346;2023-02-01T12:01:59;6.50;99.90
1978;DHT22;989;53.016;8.346;2023-02-01T12:16:23;5.40;99.90
1978;DHT22;989;53.016;8.346;2023-02-01T12:19:09;5.30;99.90
1978;DHT22;989;53.016;8.346;2023-02-01T12:21:52;5.30;99.90
1978;DHT22;989;53.016;8.346;2023-02-01T12:24:32;5.20;99.90
1978;DHT22;989;53.016;8.346;2023-02-01T12:30:43;5.10;99.90
1978;DHT22;989;53.016;8.346;2023-02-01T12:36:16;4.80;99.90
1978;DHT22;989;53.016;8.346;2023-02-01T12:39:03;4.80;99.90
1978;DHT22;989;53.016;8.346;2023-02-01T12:47:46;5.00;99.90
1978;DHT22;989;53.016;8.346;2023-02-01T12:50:21;5.10;99.90
1978;DHT22;989;53.016;8.346;2023-02-01T12:52:52;5.00;99.90
1978;DHT22;989;53.016;8.346;2023-02-01T12:58:15;5.00;99.90
1978;DHT22;989;53.016;8.346;2023-02-01T13:01:05;4.80;99.90
1978;DHT22;989;53.016;8.346;2023-02-01T13:03:44;4.80;99.90
1978;DHT22;989;53.016;8.346;2023-02-01T13:06:23;4.60;99.90
1978;DHT22;989;53.016;8.346;2023-02-01T13:11:45;4.60;99.90
1978;DHT22;989;53.016;8.346;2023-02-01T13:16:44;4.60;99.90
1978;DHT22;989;53.016;8.346;2023-02-01T13:19:24;4.70;99.90
1978;DHT22;989;53.016;8.346;2023-02-01T13:21:58;4.70;99.90
1978;DHT22;989;53.016;8.346;2023-02-01T13:24:48;4.70;99.90
1978;DHT22;989;53.016;8.346;2023-02-01T13:27:17;4.50;99.60
1978;DHT22;989;53.016;8.346;2023-02-01T13:32:48;4.50;99.90
1978;DHT22;989;53.016;8.346;2023-02-01T13:39:09;4.90;99.90
1978;DHT22;989;53.016;8.346;2023-02-01T13:42:00;5.00;99.90
1978;DHT22;989;53.016;8.346;2023-02-01T13:44:28;5.10;99.90
1978;DHT22;989;53.016;8.346;2023-02-01T13:47:02;5.20;99.90
1978;DHT22;989;53.016;8.346;2023-02-01T13:49:31;5.50;99.90
1978;DHT22;989;53.016;8.346;2023-02-01T13:52:04;5.80;95.40
1978;DHT22;989;53.016;8.346;2023-02-01T13:54:38;6.00;81.10
1978;DHT22;989;53.016;8.346;2023-02-01T13:57:34;6.10;72.70
1978;DHT22;989;53.016;8.346;2023-02-01T14:08:14;6.40;45.60
1978;DHT22;989;53.016;8.346;2023-02-01T14:10:48;6.50;41.40
1978;DHT22;989;53.016;8.346;2023-02-01T14:13:31;6.40;39.70
1978;DHT22;989;53.016;8.346;2023-02-01T14:21:29;6.80;29.40
1978;DHT22;989;53.016;8.346;2023-02-01T14:26:44;7.10;18.80
1978;DHT22;989;53.016;8.346;2023-02-01T14:32:02;7.50;5.70
1978;DHT22;989;53.016;8.346;2023-02-01T14:37:30;7.50;1.00
1978;DHT22;989;53.016;8.346;2023-02-01T14:40:01;7.50;1.00
1978;DHT22;989;53.016;8.346;2023-02-01T14:47:44;7.60;1.00
1978;DHT22;989;53.016;8.346;2023-02-01T14:56:05;7.80;1.00
1978;DHT22;989;53.016;8.346;2023-02-01T15:01:26;7.80;1.00
1978;DHT22;989;53.016;8.346;2023-02-01T15:04:09;7.80;1.00
1978;DHT22;989;53.016;8.346;2023-02-01T15:09:36;8.10;1.00
1978;DHT22;989;53.016;8.346;2023-02-01T15:14:46;8.30;1.00
1978;DHT22;989;53.016;8.346;2023-02-01T15:17:27;8.40;1.00
1978;DHT22;989;53.016;8.346;2023-02-01T15:20:15;8.40;1.00
1978;DHT22;989;53.016;8.346;2023-02-01T15:23:01;8.30;1.00
1978;DHT22;989;53.016;8.346;2023-02-01T15:25:38;8.30;1.00
1978;DHT22;989;53.016;8.346;2023-02-01T15:28:04;8.30;1.00
1978;DHT22;989;53.016;8.346;2023-02-01T15:30:34;8.20;1.00
1978;DHT22;989;53.016;8.346;2023-02-01T15:35:42;8.30;1.00
1978;DHT22;989;53.016;8.346;2023-02-01T15:46:20;7.90;1.00
1978;DHT22;989;53.016;8.346;2023-02-01T15:48:53;7.90;1.00
1978;DHT22;989;53.016;8.346;2023-02-01T15:51:22;7.90;1.00
1978;DHT22;989;53.016;8.346;2023-02-01T15:53:55;7.90;1.00
1978;DHT22;989;53.016;8.346;2023-02-01T15:56:28;7.40;1.00
1978;DHT22;989;53.016;8.346;2023-02-01T15:59:01;7.10;1.00
1978;DHT22;989;53.016;8.346;2023-02-01T16:01:28;7.10;1.00
1978;DHT22;989;53.016;8.346;2023-02-01T16:04:19;7.10;1.00
1978;DHT22;989;53.016;8.346;2023-02-01T16:06:53;7.10;1.00
1978;DHT22;989;53.016;8.346;2023-02-01T16:09:37;7.30;1.00
1978;DHT22;989;53.016;8.346;2023-02-01T16:15:07;6.90;1.00
1978;DHT22;989;53.016;8.346;2023-02-01T16:17:34;6.90;1.00
1978;DHT22;989;53.016;8.346;2023-02-01T16:19:59;6.80;1.00
1978;DHT22;989;53.016;8.346;2023-02-01T16:22:25;7.10;1.00
1978;DHT22;989;53.016;8.346;2023-02-01T16:24:51;7.10;1.00
1978;DHT22;989;53.016;8.346;2023-02-01T16:27:17;7.30;1.00
1978;DHT22;989;53.016;8.346;2023-02-01T16:29:42;7.40;1.00
1978;DHT22;989;53.016;8.346;2023-02-01T16:32:19;7.30;1.00
1978;DHT22;989;53.016;8.346;2023-02-01T16:34:47;7.40;1.00
1978;DHT22;989;53.016;8.346;2023-02-01T16:37:20;7.50;1.00
1978;DHT22;989;53.016;8.346;2023-02-01T16:39:48;7.50;1.00
1978;DHT22;989;53.016;8.346;2023-02-01T16:42:14;7.60;1.00
1978;DHT22;989;53.016;8.346;2023-02-01T16:44:41;7.40;1.00
1978;DHT22;989;53.016;8.346;2023-02-01T16:47:14;7.20;1.00
1978;DHT22;989;53.016;8.346;2023-02-01T16:49:42;7.00;1.00
1978;DHT22;989;53.016;8.346;2023-02-01T16:52:14;6.90;5.00
1978;DHT22;989;53.016;8.346;2023-02-01T16:54:42;6.80;12.20
1978;DHT22;989;53.016;8.346;2023-02-01T16:57:12;6.70;19.60
1978;DHT22;989;53.016;8.346;2023-02-01T16:59:39;6.70;17.20
1978;DHT22;989;53.016;8.346;2023-02-01T17:02:05;6.90;1.00
1978;DHT22;989;53.016;8.346;2023-02-01T17:04:31;7.00;1.00
1978;DHT22;989;53.016;8.346;2023-02-01T17:06:57;7.10;1.00
1978;DHT22;989;53.016;8.346;2023-02-01T17:09:23;7.00;1.00
1978;DHT22;989;53.016;8.346;2023-02-01T17:11:50;7.00;1.00
1978;DHT22;989;53.016;8.346;2023-02-01T17:14:18;7.10;1.00
1978;DHT22;989;53.016;8.346;2023-02-01T17:16:49;7.20;1.00
1978;DHT22;989;53.016;8.346;2023-02-01T17:19:20;7.10;1.00
1978;DHT22;989;53.016;8.346;2023-02-01T17:21:50;7.20;1.00
1978;DHT22;989;53.016;8.346;2023-02-01T17:24:23;7.20;1.00
1978;DHT22;989;53.016;8.346;2023-02-01T17:26:51;7.30;1.00
1978;DHT22;989;53.016;8.346;2023-02-01T17:29:17;7.30;1.00
1978;DHT22;989;53.016;8.346;2023-02-01T17:31:46;7.40;1.00
1978;DHT22;989;53.016;8.346;2023-02-01T17:34:14;7.50;1.00
1978;DHT22;989;53.016;8.346;2023-02-01T17:36:42;7.50;1.00
1978;DHT22;989;53.016;8.346;2023-02-01T17:39:09;7.50;1.00
1978;DHT22;989;53.016;8.346;2023-02-01T17:41:36;7.50;1.00
1978;DHT22;989;53.016;8.346;2023-02-01T17:44:03;7.50;1.00
1978;DHT22;989;53.016;8.346;2023-02-01T17:46:30;7.40;1.00
1978;DHT22;989;53.016;8.346;2023-02-01T17:48:56;7.40;1.00
1978;DHT22;989;53.016;8.346;2023-02-01T17:51:24;7.50;1.00
1978;DHT22;989;53.016;8.346;2023-02-01T17:53:54;7.50;1.00
1978;DHT22;989;53.016;8.346;2023-02-01T17:56:22;7.50;1.00
1978;DHT22;989;53.016;8.346;2023-02-01T17:58:49;7.50;1.00
1978;DHT22;989;53.016;8.346;2023-02-01T18:01:23;7.50;1.00
1978;DHT22;989;53.016;8.346;2023-02-01T18:03:49;7.50;1.00
1978;DHT22;989;53.016;8.346;2023-02-01T18:06:17;7.40;1.00
1978;DHT22;989;53.016;8.346;2023-02-01T18:08:44;7.40;1.00
1978;DHT22;989;53.016;8.346;2023-02-01T18:11:21;7.40;1.00
1978;DHT22;989;53.016;8.346;2023-02-01T18:13:50;7.50;1.00
1978;DHT22;989;53.016;8.346;2023-02-01T18:18:56;7.40;1.00
1978;DHT22;989;53.016;8.346;2023-02-01T18:21:37;7.40;1.00
1978;DHT22;989;53.016;8.346;2023-02-01T18:24:15;7.40;1.00
1978;DHT22;989;53.016;8.346;2023-02-01T18:26:42;7.40;1.00
1978;DHT22;989;53.016;8.346;2023-02-01T18:29:08;7.40;1.00
1978;DHT22;989;53.016;8.346;2023-02-01T18:31:36;7.40;1.00
1978;DHT22;989;53.016;8.346;2023-02-01T18:34:08;7.40;1.00
1978;DHT22;989;53.016;8.346;2023-02-01T18:36:34;7.40;1.00
1978;DHT22;989;53.016;8.346;2023-02-01T18:39:00;7.40;1.00
1978;DHT22;989;53.016;8.346;2023-02-01T18:41:25;7.40;1.00
1978;DHT22;989;53.016;8.346;2023-02-01T18:43:52;7.40;1.00
1978;DHT22;989;53.016;8.346;2023-02-01T18:46:17;7.40;1.00
1978;DHT22;989;53.016;8.346;2023-02-01T18:48:44;7.50;1.00
1978;DHT22;989;53.016;8.346;2023-02-01T18:51:11;7.50;1.00
1978;DHT22;989;53.016;8.346;2023-02-01T18:53:38;7.50;1.00
1978;DHT22;989;53.016;8.346;2023-02-01T18:56:05;7.50;1.00
1978;DHT22;989;53.016;8.346;2023-02-01T18:58:31;7.40;1.00
1978;DHT22;989;53.016;8.346;2023-02-01T19:00:59;7.40;1.00
1978;DHT22;989;53.016;8.346;2023-02-01T19:03:30;7.30;1.00
1978;DHT22;989;53.016;8.346;2023-02-01T19:05:56;7.30;1.00
1978;DHT22;989;53.016;8.346;2023-02-01T19:08:22;7.20;1.00
1978;DHT22;989;53.016;8.346;2023-02-01T19:10:50;7.20;1.00
1978;DHT22;989;53.016;8.346;2023-02-01T19:13:16;7.20;1.00
1978;DHT22;989;53.016;8.346;2023-02-01T19:15:45;7.20;1.00
1978;DHT22;989;53.016;8.346;2023-02-01T19:18:11;7.30;1.00
1978;DHT22;989;53.016;8.346;2023-02-01T19:20:38;7.20;1.00
1978;DHT22;989;53.016;8.346;2023-02-01T19:23:06;7.20;1.00
1978;DHT22;989;53.016;8.346;2023-02-01T19:25:33;7.10;1.00
1978;DHT22;989;53.016;8.346;2023-02-01T19:27:58;6.90;1.00
1978;DHT22;989;53.016;8.346;2023-02-01T19:30:24;6.90;1.00
1978;DHT22;989;53.016;8.346;2023-02-01T19:32:50;7.00;1.00
1978;DHT22;989;53.016;8.346;2023-02-01T19:35:18;7.00;1.00
1978;DHT22;989;53.016;8.346;2023-02-01T19:37:47;7.00;1.00
1978;DHT22;989;53.016;8.346;2023-02-01T19:40:18;6.90;1.00
1978;DHT22;989;53.016;8.346;2023-02-01T19:42:44;6.90;1.00
1978;DHT22;989;53.016;8.346;2023-02-01T19:45:11;6.90;1.00
1978;DHT22;989;53.016;8.346;2023-02-01T19:47:37;6.80;1.00
1978;DHT22;989;53.016;8.346;2023-02-01T19:50:04;6.70;1.00